sensor_id;sensor_type;location;lat;lon;timestamp;temperature;humidity
27848;DHT22;15212;48.830;8.730;2023-01-23T00:01:38;-0.50;99.90
27848;DHT22;15212;48.830;8.730;2023-01-23T00:04:08;-0.40;99.90
27848;DHT22;15212;48.830;8.730;2023-01-23T00:06:37;-0.40;99.90
27848;DHT22;15212;48.830;8.730;2023-01-23T00:09:07;-0.40;99.90
27848;DHT22;15212;48.830;8.730;2023-01-23T00:11:35;-0.50;99.90
27848;DHT22;15212;48.830;8.730;2023-01-23T00:14:04;-0.50;99.90
27848;DHT22;15212;48.830;8.730;2023-01-23T00:16:32;-0.50;99.90
27848;DHT22;15212;48.830;8.730;2023-01-23T00:19:01;-0.50;99.90
27848;DHT22;15212;48.830;8.730;2023-01-23T00:21:29;-0.50;99.90
27848;DHT22;15212;48.830;8.730;2023-01-23T00:23:59;-0.50;99.90
27848;DHT22;15212;48.830;8.730;2023-01-23T00:26:28;-0.50;99.90
27848;DHT22;15212;48.830;8.730;2023-01-23T00:28:58;-0.50;99.90
27848;DHT22;15212;48.830;8.730;2023-01-23T00:31:30;-0.50;99.90
27848;DHT22;15212;48.830;8.730;2023-01-23T00:34:05;-0.50;99.90
27848;DHT22;15212;48.830;8.730;2023-01-23T00:36:37;-0.50;99.90
27848;DHT22;15212;48.830;8.730;2023-01-23T00:39:14;-0.50;99.90
27848;DHT22;15212;48.830;8.730;2023-01-23T00:41:44;-0.50;99.90
27848;DHT22;15212;48.830;8.730;2023-01-23T00:44:14;-0.50;99.90
27848;DHT22;15212;48.830;8.730;2023-01-23T00:46:43;-0.50;99.90
27848;DHT22;15212;48.830;8.730;2023-01-23T00:49:12;-0.60;99.90
27848;DHT22;15212;48.830;8.730;2023-01-23T00:51:42;-0.60;99.90
27848;DHT22;15212;48.830;8.730;2023-01-23T00:54:11;-0.60;99.90
27848;DHT22;15212;48.830;8.730;2023-01-23T00:56:40;-0.60;99.90
27848;DHT22;15212;48.830;8.730;2023-01-23T00:59:09;-0.60;99.90
27848;DHT22;15212;48.830;8.730;2023-01-23T01:01:37;-0.70;99.90
27848;DHT22;15212;48.830;8.730;2023-01-23T01:04:06;-0.60;99.90
27848;DHT22;15212;48.830;8.730;2023-01-23T01:06:34;-0.60;99.90
27848;DHT22;15212;48.830;8.730;2023-01-23T01:09:03;-0.60;99.90
27848;DHT22;15212;48.830;8.730;2023-01-23T01:11:31;-0.60;99.90
27848;DHT22;15212;48.830;8.730;2023-01-23T01:14:00;-0.60;99.90
27848;DHT22;15212;48.830;8.730;2023-01-23T01:16:28;-0.60;99.90
27848;DHT22;15212;48.830;8.730;2023-01-23T01:18:56;-0.60;99.90
27848;DHT22;15212;48.830;8.730;2023-01-23T01:21:25;-0.60;99.90
27848;DHT22;15212;48.830;8.730;2023-01-23T01:23:53;-0.60;99.90
27848;DHT22;15212;48.830;8.730;2023-01-23T01:26:22;-0.60;99.90
27848;DHT22;15212;48.830;8.730;2023-01-23T01:28:51;-0.70;99.90
27848;DHT22;15212;48.830;8.730;2023-01-23T01:31:20;-0.60;99.90
27848;DHT22;15212;48.830;8.730;2023-01-23T01:33:48;-0.70;99.90
27848;DHT22;15212;48.830;8.730;2023-01-23T01:36:19;-0.70;99.90
27848;DHT22;15212;48.830;8.730;2023-01-23T01:38:49;-0.70;99.90
27848;DHT22;15212;48.830;8.730;2023-01-23T01:41:18;-0.70;99.90
27848;DHT22;15212;48.830;8.730;2023-01-23T01:43:47;-0.70;99.90
27848;DHT22;15212;48.830;8.730;2023-01-23T01:46:24;-0.70;99.90
27848;DHT22;15212;48.830;8.730;2023-01-23T01:49:08;-0.70;99.90
27848;DHT22;15212;48.830;8.730;2023-01-23T01:52:09;-0.70;99.90
27848;DHT22;15212;48.830;8.730;2023-01-23T01:54:44;-0.70;99.90
27848;DHT22;15212;48.830;8.730;2023-01-23T02:00:13;-0.70;99.90
27848;DHT22;15212;48.830;8.730;2023-01-23T02:03:04;-0.70;99.90
27848;DHT22;15212;48.830;8.730;2023-01-23T02:05:39;-0.70;99.90
27848;DHT22;15212;48.830;8.730;2023-01-23T02:08:14;-0.70;99.90
27848;DHT22;15212;48.830;8.730;2023-01-23T02:10:47;-0.70;99.90
27848;DHT22;15212;48.830;8.730;2023-01-23T02:13:27;-0.70;99.90
27848;DHT22;15212;48.830;8.730;2023-01-23T02:16:00;-0.70;99.90
27848;DHT22;15212;48.830;8.730;2023-01-23T02:18:31;-0.70;99.90
27848;DHT22;15212;48.830;8.730;2023-01-23T02:21:09;-0.70;99.90
27848;DHT22;15212;48.830;8.730;2023-01-23T02:24:11;-0.70;99.90
27848;DHT22;15212;48.830;8.730;2023-01-23T02:26:29;-0.70;99.90
27848;DHT22;15212;48.830;8.730;2023-01-23T02:29:02;-0.70;99.90
27848;DHT22;15212;48.830;8.730;2023-01-23T02:31:32;-0.70;99.90
27848;DHT22;15212;48.830;8.730;2023-01-23T02:34:00;-0.70;99.90
27848;DHT22;15212;48.830;8.730;2023-01-23T02:36:33;-0.70;99.90
27848;DHT22;15212;48.830;8.730;2023-01-23T02:39:07;-0.70;99.90
27848;DHT22;15212;48.830;8.730;2023-01-23T02:41:49;-0.60;99.90
27848;DHT22;15212;48.830;8.730;2023-01-23T02:44:17;-0.60;99.90
27848;DHT22;15212;48.830;8.730;2023-01-23T02:46:48;-0.60;99.90
27848;DHT22;15212;48.830;8.730;2023-01-23T02:49:17;-0.60;99.90
27848;DHT22;15212;48.830;8.730;2023-01-23T02:51:47;-0.60;99.90
27848;DHT22;15212;48.830;8.730;2023-01-23T02:54:16;-0.60;99.90
27848;DHT22;15212;48.830;8.730;2023-01-23T02:56:45;-0.60;99.90
27848;DHT22;15212;48.830;8.730;2023-01-23T02:59:13;-0.60;99.90
27848;DHT22;15212;48.830;8.730;2023-01-23T03:01:59;-0.60;99.90
27848;DHT22;15212;48.830;8.730;2023-01-23T03:04:29;-0.60;99.90
27848;DHT22;15212;48.830;8.730;2023-01-23T03:06:58;-0.60;99.90
27848;DHT22;15212;48.830;8.730;2023-01-23T03:09:26;-0.60;99.90
27848;DHT22;15212;48.830;8.730;2023-01-23T03:11:54;-0.60;99.90
27848;DHT22;15212;48.830;8.730;2023-01-23T03:14:24;-0.60;99.90
27848;DHT22;15212;48.830;8.730;2023-01-23T03:16:52;-0.60;99.90
27848;DHT22;15212;48.830;8.730;2023-01-23T03:19:23;-0.60;99.90
27848;DHT22;15212;48.830;8.730;2023-01-23T03:21:52;-0.60;99.90
27848;DHT22;15212;48.830;8.730;2023-01-23T03:24:22;-0.60;99.90
27848;DHT22;15212;48.830;8.730;2023-01-23T03:26:50;-0.70;99.90
27848;DHT22;15212;48.830;8.730;2023-01-23T03:29:21;-0.60;99.90
27848;DHT22;15212;48.830;8.730;2023-01-23T03:32:10;-0.60;99.90
27848;DHT22;15212;48.830;8.730;2023-01-23T03:34:40;-0.70;99.90
27848;DHT22;15212;48.830;8.730;2023-01-23T03:37:11;-0.60;99.90
27848;DHT22;15212;48.830;8.730;2023-01-23T03:39:40;-0.60;99.90
27848;DHT22;15212;48.830;8.730;2023-01-23T03:42:26;-0.60;99.90
27848;DHT22;15212;48.830;8.730;2023-01-23T03:44:55;-0.60;99.90
27848;DHT22;15212;48.830;8.730;2023-01-23T03:47:23;-0.60;99.90
27848;DHT22;15212;48.830;8.730;2023-01-23T03:49:52;-0.60;99.90
27848;DHT22;15212;48.830;8.730;2023-01-23T03:52:20;-0.70;99.90
27848;DHT22;15212;48.830;8.730;2023-01-23T03:54:49;-0.60;99.90
27848;DHT22;15212;48.830;8.730;2023-01-23T03:57:17;-0.60;99.90
27848;DHT22;15212;48.830;8.730;2023-01-23T03:59:46;-0.60;99.90
27848;DHT22;15212;48.830;8.730;2023-01-23T04:02:14;-0.60;99.90
27848;DHT22;15212;48.830;8.730;2023-01-23T04:04:43;-0.70;99.90
27848;DHT22;15212;48.830;8.730;2023-01-23T04:07:11;-0.70;99.90
27848;DHT22;15212;48.830;8.730;2023-01-23T04:09:39;-0.60;99.90
27848;DHT22;15212;48.830;8.730;2023-01-23T04:12:08;-0.60;99.90
27848;DHT22;15212;48.830;8.730;2023-01-23T04:14:36;-0.70;99.90
27848;DHT22;15212;48.830;8.730;2023-01-23T04:17:05;-0.60;99.90
27848;DHT22;15212;48.830;8.730;2023-01-23T04:19:35;-0.60;99.90
27848;DHT22;15212;48.830;8.730;2023-01-23T04:22:03;-0.70;99.90
27848;DHT22;15212;48.830;8.730;2023-01-23T04:24:31;-0.70;99.90
27848;DHT22;15212;48.830;8.730;2023-01-23T04:27:00;-0.60;99.90
27848;DHT22;15212;48.830;8.730;2023-01-23T04:29:28;-0.60;99.90
27848;DHT22;15212;48.830;8.730;2023-01-23T04:31:57;-0.60;99.90
27848;DHT22;15212;48.830;8.730;2023-01-23T04:34:25;-0.60;99.90
27848;DHT22;15212;48.830;8.730;2023-01-23T04:36:53;-0.60;99.90
27848;DHT22;15212;48.830;8.730;2023-01-23T04:39:22;-0.60;99.90
27848;DHT22;15212;48.830;8.730;2023-01-23T04:41:50;-0.60;99.90
27848;DHT22;15212;48.830;8.730;2023-01-23T04:44:18;-0.60;99.90
27848;DHT22;15212;48.830;8.730;2023-01-23T04:46:48;-0.70;99.90
27848;DHT22;15212;48.830;8.730;2023-01-23T04:49:21;-0.70;99.90
27848;DHT22;15212;48.830;8.730;2023-01-23T04:51:50;-0.60;99.90
27848;DHT22;15212;48.830;8.730;2023-01-23T04:54:20;-0.60;99.90
27848;DHT22;15212;48.830;8.730;2023-01-23T04:56:49;-0.60;99.90
27848;DHT22;15212;48.830;8.730;2023-01-23T04:59:17;-0.60;99.90
27848;DHT22;15212;48.830;8.730;2023-01-23T05:01:47;-0.60;99.90
27848;DHT22;15212;48.830;8.730;2023-01-23T05:04:15;-0.60;99.90
27848;DHT22;15212;48.830;8.730;2023-01-23T05:06:43;-0.60;99.90
27848;DHT22;15212;48.830;8.730;2023-01-23T05:09:12;-0.60;99.90
27848;DHT22;15212;48.830;8.730;2023-01-23T05:11:40;-0.60;99.90
27848;DHT22;15212;48.830;8.730;2023-01-23T05:14:08;-0.60;99.90
27848;DHT22;15212;48.830;8.730;2023-01-23T05:16:37;-0.60;99.90
27848;DHT22;15212;48.830;8.730;2023-01-23T05:19:06;-0.60;99.90
27848;DHT22;15212;48.830;8.730;2023-01-23T05:21:34;-0.60;99.90
27848;DHT22;15212;48.830;8.730;2023-01-23T05:24:02;-0.60;99.90
27848;DHT22;15212;48.830;8.730;2023-01-23T05:26:31;-0.60;99.90
27848;DHT22;15212;48.830;8.730;2023-01-23T05:29:00;-0.60;99.90
27848;DHT22;15212;48.830;8.730;2023-01-23T05:31:29;-0.70;99.90
27848;DHT22;15212;48.830;8.730;2023-01-23T05:33:57;-0.60;99.90
27848;DHT22;15212;48.830;8.730;2023-01-23T05:36:26;-0.70;99.90
27848;DHT22;15212;48.830;8.730;2023-01-23T05:38:54;-0.70;99.90
27848;DHT22;15212;48.830;8.730;2023-01-23T05:41:23;-0.70;99.90
27848;DHT22;15212;48.830;8.730;2023-01-23T05:43:51;-0.60;99.90
27848;DHT22;15212;48.830;8.730;2023-01-23T05:46:19;-0.60;99.90
27848;DHT22;15212;48.830;8.730;2023-01-23T05:48:49;-0.60;99.90
27848;DHT22;15212;48.830;8.730;2023-01-23T05:51:18;-0.70;99.90
27848;DHT22;15212;48.830;8.730;2023-01-23T05:53:46;-0.70;99.90
27848;DHT22;15212;48.830;8.730;2023-01-23T05:56:15;-0.70;99.90
27848;DHT22;15212;48.830;8.730;2023-01-23T05:58:43;-0.70;99.90
27848;DHT22;15212;48.830;8.730;2023-01-23T06:01:11;-0.70;99.90
27848;DHT22;15212;48.830;8.730;2023-01-23T06:03:40;-0.70;99.90
27848;DHT22;15212;48.830;8.730;2023-01-23T06:06:08;-0.70;99.90
27848;DHT22;15212;48.830;8.730;2023-01-23T06:08:37;-0.70;99.90
27848;DHT22;15212;48.830;8.730;2023-01-23T06:11:05;-0.60;99.90
27848;DHT22;15212;48.830;8.730;2023-01-23T06:13:34;-0.70;99.90
27848;DHT22;15212;48.830;8.730;2023-01-23T06:16:03;-0.60;99.90
27848;DHT22;15212;48.830;8.730;2023-01-23T06:18:31;-0.60;99.90
27848;DHT22;15212;48.830;8.730;2023-01-23T06:21:00;-0.60;99.90
27848;DHT22;15212;48.830;8.730;2023-01-23T06:23:30;-0.60;99.90
27848;DHT22;15212;48.830;8.730;2023-01-23T06:26:00;-0.60;99.90
27848;DHT22;15212;48.830;8.730;2023-01-23T06:28:29;-0.60;99.90
27848;DHT22;15212;48.830;8.730;2023-01-23T06:31:02;-0.60;99.90
27848;DHT22;15212;48.830;8.730;2023-01-23T06:33:32;-0.70;99.90
27848;DHT22;15212;48.830;8.730;2023-01-23T06:36:02;-0.70;99.90
27848;DHT22;15212;48.830;8.730;2023-01-23T06:38:33;-0.60;99.90
27848;DHT22;15212;48.830;8.730;2023-01-23T06:41:01;-0.60;99.90
27848;DHT22;15212;48.830;8.730;2023-01-23T06:43:30;-0.60;99.90
27848;DHT22;15212;48.830;8.730;2023-01-23T06:45:58;-0.60;99.90
27848;DHT22;15212;48.830;8.730;2023-01-23T06:48:26;-0.60;99.90
27848;DHT22;15212;48.830;8.730;2023-01-23T06:50:58;-0.70;99.90
27848;DHT22;15212;48.830;8.730;2023-01-23T06:53:27;-0.70;99.90
27848;DHT22;15212;48.830;8.730;2023-01-23T06:56:03;-0.70;99.90
27848;DHT22;15212;48.830;8.730;2023-01-23T06:58:33;-0.70;99.90
27848;DHT22;15212;48.830;8.730;2023-01-23T07:01:08;-0.60;99.90
27848;DHT22;15212;48.830;8.730;2023-01-23T07:03:38;-0.60;99.90
27848;DHT22;15212;48.830;8.730;2023-01-23T07:06:07;-0.60;99.90
27848;DHT22;15212;48.830;8.730;2023-01-23T07:08:35;-0.60;99.90
27848;DHT22;15212;48.830;8.730;2023-01-23T07:11:04;-0.60;99.90
27848;DHT22;15212;48.830;8.730;2023-01-23T07:13:33;-0.60;99.90
27848;DHT22;15212;48.830;8.730;2023-01-23T07:16:02;-0.60;99.90
27848;DHT22;15212;48.830;8.730;2023-01-23T07:18:31;-0.60;99.90
27848;DHT22;15212;48.830;8.730;2023-01-23T07:20:59;-0.60;99.90
27848;DHT22;15212;48.830;8.730;2023-01-23T07:23:32;-0.60;99.90
27848;DHT22;15212;48.830;8.730;2023-01-23T07:26:03;-0.60;99.90
27848;DHT22;15212;48.830;8.730;2023-01-23T07:28:35;-0.60;99.90
27848;DHT22;15212;48.830;8.730;2023-01-23T07:31:04;-0.60;99.90
27848;DHT22;15212;48.830;8.730;2023-01-23T07:33:33;-0.60;99.90
27848;DHT22;15212;48.830;8.730;2023-01-23T07:36:05;-0.60;99.90
27848;DHT22;15212;48.830;8.730;2023-01-23T07:38:34;-0.60;99.90
27848;DHT22;15212;48.830;8.730;2023-01-23T07:41:05;-0.60;99.90
27848;DHT22;15212;48.830;8.730;2023-01-23T07:43:33;-0.60;99.90
27848;DHT22;15212;48.830;8.730;2023-01-23T07:46:01;-0.60;99.90
27848;DHT22;15212;48.830;8.730;2023-01-23T07:48:30;-0.70;99.90
27848;DHT22;15212;48.830;8.730;2023-01-23T07:51:00;-0.60;99.90
27848;DHT22;15212;48.830;8.730;2023-01-23T07:53:29;-0.60;99.90
27848;DHT22;15212;48.830;8.730;2023-01-23T07:55:58;-0.60;99.90
27848;DHT22;15212;48.830;8.730;2023-01-23T07:58:28;-0.60;99.90
27848;DHT22;15212;48.830;8.730;2023-01-23T08:00:57;-0.60;99.90
27848;DHT22;15212;48.830;8.730;2023-01-23T08:03:25;-0.50;99.90
27848;DHT22;15212;48.830;8.730;2023-01-23T08:05:55;-0.60;99.90
27848;DHT22;15212;48.830;8.730;2023-01-23T08:08:25;-0.60;99.90
27848;DHT22;15212;48.830;8.730;2023-01-23T08:10:53;-0.60;99.90
27848;DHT22;15212;48.830;8.730;2023-01-23T08:13:22;-0.60;99.90
27848;DHT22;15212;48.830;8.730;2023-01-23T08:15:50;-0.50;99.90
27848;DHT22;15212;48.830;8.730;2023-01-23T08:18:19;-0.50;99.90
27848;DHT22;15212;48.830;8.730;2023-01-23T08:20:55;-0.50;99.90
27848;DHT22;15212;48.830;8.730;2023-01-23T08:23:26;-0.50;99.90
27848;DHT22;15212;48.830;8.730;2023-01-23T08:25:58;-0.50;99.90
27848;DHT22;15212;48.830;8.730;2023-01-23T08:28:28;-0.50;99.90
27848;DHT22;15212;48.830;8.730;2023-01-23T08:31:01;-0.40;99.90
27848;DHT22;15212;48.830;8.730;2023-01-23T08:33:31;-0.40;99.90
27848;DHT22;15212;48.830;8.730;2023-01-23T08:36:00;-0.40;99.90
27848;DHT22;15212;48.830;8.730;2023-01-23T08:38:29;-0.40;99.90
27848;DHT22;15212;48.830;8.730;2023-01-23T08:41:00;-0.50;99.90
27848;DHT22;15212;48.830;8.730;2023-01-23T08:43:29;-0.40;99.90
27848;DHT22;15212;48.830;8.730;2023-01-23T08:45:58;-0.50;99.90
27848;DHT22;15212;48.830;8.730;2023-01-23T08:48:27;-0.40;99.90
27848;DHT22;15212;48.830;8.730;2023-01-23T08:51:01;-0.40;99.90
27848;DHT22;15212;48.830;8.730;2023-01-23T08:53:32;-0.40;99.90
27848;DHT22;15212;48.830;8.730;2023-01-23T08:56:06;-0.30;99.90
27848;DHT22;15212;48.830;8.730;2023-01-23T08:58:36;-0.30;99.90
27848;DHT22;15212;48.830;8.730;2023-01-23T09:01:09;-0.30;99.90
27848;DHT22;15212;48.830;8.730;2023-01-23T09:03:39;-0.30;99.90
27848;DHT22;15212;48.830;8.730;2023-01-23T09:06:15;-0.30;99.90
27848;DHT22;15212;48.830;8.730;2023-01-23T09:08:39;-0.30;99.90
27848;DHT22;15212;48.830;8.730;2023-01-23T09:11:09;-0.30;99.90
27848;DHT22;15212;48.830;8.730;2023-01-23T09:13:38;-0.30;99.90
27848;DHT22;15212;48.830;8.730;2023-01-23T09:16:07;-0.20;99.90
27848;DHT22;15212;48.830;8.730;2023-01-23T09:18:35;-0.20;99.90
27848;DHT22;15212;48.830;8.730;2023-01-23T09:21:09;-0.10;99.90
27848;DHT22;15212;48.830;8.730;2023-01-23T09:23:38;-0.10;99.90
27848;DHT22;15212;48.830;8.730;2023-01-23T09:26:08;-0.10;99.90
27848;DHT22;15212;48.830;8.730;2023-01-23T09:28:39;0.00;99.90
27848;DHT22;15212;48.830;8.730;2023-01-23T09:31:11;0.10;99.90
27848;DHT22;15212;48.830;8.730;2023-01-23T09:33:40;0.20;99.90
27848;DHT22;15212;48.830;8.730;2023-01-23T09:36:09;0.30;99.90
27848;DHT22;15212;48.830;8.730;2023-01-23T09:38:37;0.30;99.90
27848;DHT22;15212;48.830;8.730;2023-01-23T09:41:13;0.30;99.90
27848;DHT22;15212;48.830;8.730;2023-01-23T09:44:10;0.30;99.90
27848;DHT22;15212;48.830;8.730;2023-01-23T09:46:44;0.30;99.90
27848;DHT22;15212;48.830;8.730;2023-01-23T09:49:43;0.40;99.90
27848;DHT22;15212;48.830;8.730;2023-01-23T09:52:32;0.40;99.90
27848;DHT22;15212;48.830;8.730;2023-01-23T09:55:12;0.40;99.90
27848;DHT22;15212;48.830;8.730;2023-01-23T09:57:59;0.40;99.90
27848;DHT22;15212;48.830;8.730;2023-01-23T10:00:33;0.40;99.90
27848;DHT22;15212;48.830;8.730;2023-01-23T10:03:13;0.40;99.90
27848;DHT22;15212;48.830;8.730;2023-01-23T10:06:00;0.30;99.90
27848;DHT22;15212;48.830;8.730;2023-01-23T10:11:23;0.30;99.90
27848;DHT22;15212;48.830;8.730;2023-01-23T10:14:43;0.30;99.90
27848;DHT22;15212;48.830;8.730;2023-01-23T10:20:37;0.30;99.90
27848;DHT22;15212;48.830;8.730;2023-01-23T10:26:22;0.30;99.90
27848;DHT22;15212;48.830;8.730;2023-01-23T10:28:56;0.20;99.90
27848;DHT22;15212;48.830;8.730;2023-01-23T10:31:35;0.10;99.90
27848;DHT22;15212;48.830;8.730;2023-01-23T10:37:10;0.30;99.90
27848;DHT22;15212;48.830;8.730;2023-01-23T10:42:33;0.20;99.90
27848;DHT22;15212;48.830;8.730;2023-01-23T10:45:01;0.20;99.90
27848;DHT22;15212;48.830;8.730;2023-01-23T10:47:49;0.10;99.90
27848;DHT22;15212;48.830;8.730;2023-01-23T10:50:32;0.10;99.90
27848;DHT22;15212;48.830;8.730;2023-01-23T10:53:07;0.20;99.90
27848;DHT22;15212;48.830;8.730;2023-01-23T10:55:43;0.20;99.90
27848;DHT22;15212;48.830;8.730;2023-01-23T10:58:27;0.30;99.90
27848;DHT22;15212;48.830;8.730;2023-01-23T11:01:03;0.30;99.90
27848;DHT22;15212;48.830;8.730;2023-01-23T11:03:34;0.40;99.90
27848;DHT22;15212;48.830;8.730;2023-01-23T11:06:07;0.30;99.90
27848;DHT22;15212;48.830;8.730;2023-01-23T11:08:38;0.30;99.90
27848;DHT22;15212;48.830;8.730;2023-01-23T11:11:17;0.20;99.90
27848;DHT22;15212;48.830;8.730;2023-01-23T11:14:02;0.20;99.90
27848;DHT22;15212;48.830;8.730;2023-01-23T11:16:33;0.20;99.90
27848;DHT22;15212;48.830;8.730;2023-01-23T11:21:53;0.30;99.90
27848;DHT22;15212;48.830;8.730;2023-01-23T11:24:31;0.30;99.90
27848;DHT22;15212;48.830;8.730;2023-01-23T11:27:04;0.30;99.90
27848;DHT22;15212;48.830;8.730;2023-01-23T11:30:15;0.30;99.90
27848;DHT22;15212;48.830;8.730;2023-01-23T11:32:16;0.20;99.90
27848;DHT22;15212;48.830;8.730;2023-01-23T11:34:48;0.30;99.90
27848;DHT22;15212;48.830;8.730;2023-01-23T11:37:33;0.40;99.90
27848;DHT22;15212;48.830;8.730;2023-01-23T11:40:11;0.40;99.90
27848;DHT22;15212;48.830;8.730;2023-01-23T11:42:39;0.40;99.90
27848;DHT22;15212;48.830;8.730;2023-01-23T11:45:27;0.50;99.90
27848;DHT22;15212;48.830;8.730;2023-01-23T11:48:05;0.50;99.90
27848;DHT22;15212;48.830;8.730;2023-01-23T11:50:47;0.50;99.90
27848;DHT22;15212;48.830;8.730;2023-01-23T11:53:32;0.50;99.90
27848;DHT22;15212;48.830;8.730;2023-01-23T11:56:42;0.60;99.90
27848;DHT22;15212;48.830;8.730;2023-01-23T11:59:42;0.70;99.90
27848;DHT22;15212;48.830;8.730;2023-01-23T12:05:23;0.70;99.90
27848;DHT22;15212;48.830;8.730;2023-01-23T12:17:00;0.60;99.90
27848;DHT22;15212;48.830;8.730;2023-01-23T12:19:50;0.60;99.90
27848;DHT22;15212;48.830;8.730;2023-01-23T12:25:59;0.50;99.90
27848;DHT22;15212;48.830;8.730;2023-01-23T12:28:29;0.50;99.90
27848;DHT22;15212;48.830;8.730;2023-01-23T12:43:06;0.60;99.90
27848;DHT22;15212;48.830;8.730;2023-01-23T12:45:31;0.50;99.90
27848;DHT22;15212;48.830;8.730;2023-01-23T12:48:05;0.60;99.90
27848;DHT22;15212;48.830;8.730;2023-01-23T12:50:44;0.50;99.90
27848;DHT22;15212;48.830;8.730;2023-01-23T12:53:13;0.60;99.90
27848;DHT22;15212;48.830;8.730;2023-01-23T12:58:27;0.60;99.90
27848;DHT22;15212;48.830;8.730;2023-01-23T13:01:11;0.60;99.90
27848;DHT22;15212;48.830;8.730;2023-01-23T13:03:56;0.60;99.90
27848;DHT22;15212;48.830;8.730;2023-01-23T13:10:12;0.80;99.90
27848;DHT22;15212;48.830;8.730;2023-01-23T13:12:54;0.80;99.90
27848;DHT22;15212;48.830;8.730;2023-01-23T13:15:32;0.80;99.90
27848;DHT22;15212;48.830;8.730;2023-01-23T13:18:01;0.90;99.90
27848;DHT22;15212;48.830;8.730;2023-01-23T13:20:51;0.90;99.90
27848;DHT22;15212;48.830;8.730;2023-01-23T13:23:33;0.90;99.90
27848;DHT22;15212;48.830;8.730;2023-01-23T13:28:52;0.90;99.90
27848;DHT22;15212;48.830;8.730;2023-01-23T13:31:42;0.80;99.90
27848;DHT22;15212;48.830;8.730;2023-01-23T13:36:51;0.70;99.90
27848;DHT22;15212;48.830;8.730;2023-01-23T13:39:23;0.70;99.90
27848;DHT22;15212;48.830;8.730;2023-01-23T13:45:21;0.80;99.90
27848;DHT22;15212;48.830;8.730;2023-01-23T13:48:21;0.80;99.90
27848;DHT22;15212;48.830;8.730;2023-01-23T13:51:23;0.90;99.90
27848;DHT22;15212;48.830;8.730;2023-01-23T13:53:53;0.90;99.90
27848;DHT22;15212;48.830;8.730;2023-01-23T13:56:40;1.00;99.90
27848;DHT22;15212;48.830;8.730;2023-01-23T14:06:13;0.90;99.90
27848;DHT22;15212;48.830;8.730;2023-01-23T14:08:02;0.90;99.90
27848;DHT22;15212;48.830;8.730;2023-01-23T14:10:35;0.80;99.90
27848;DHT22;15212;48.830;8.730;2023-01-23T14:13:16;0.80;99.90
27848;DHT22;15212;48.830;8.730;2023-01-23T14:15:45;0.80;99.90
27848;DHT22;15212;48.830;8.730;2023-01-23T14:18:53;0.80;99.90
27848;DHT22;15212;48.830;8.730;2023-01-23T14:21:28;0.70;99.90
27848;DHT22;15212;48.830;8.730;2023-01-23T14:24:00;0.70;99.90
27848;DHT22;15212;48.830;8.730;2023-01-23T14:26:31;0.80;99.90
27848;DHT22;15212;48.830;8.730;2023-01-23T14:29:03;0.80;99.90
27848;DHT22;15212;48.830;8.730;2023-01-23T14:31:49;0.80;99.90
27848;DHT22;15212;48.830;8.730;2023-01-23T14:34:22;0.80;99.90
27848;DHT22;15212;48.830;8.730;2023-01-23T14:37:03;0.80;99.90
27848;DHT22;15212;48.830;8.730;2023-01-23T14:39:35;0.90;99.90
27848;DHT22;15212;48.830;8.730;2023-01-23T14:42:04;0.80;99.90
27848;DHT22;15212;48.830;8.730;2023-01-23T14:44:41;0.80;99.90
27848;DHT22;15212;48.830;8.730;2023-01-23T14:47:17;0.80;99.90
27848;DHT22;15212;48.830;8.730;2023-01-23T14:49:49;0.80;99.90
27848;DHT22;15212;48.830;8.730;2023-01-23T14:52:26;0.80;99.90
27848;DHT22;15212;48.830;8.730;2023-01-23T14:54:56;0.80;99.90
27848;DHT22;15212;48.830;8.730;2023-01-23T14:57:26;0.90;99.90
27848;DHT22;15212;48.830;8.730;2023-01-23T14:59:56;0.90;99.90
27848;DHT22;15212;48.830;8.730;2023-01-23T15:02:33;0.90;99.90
27848;DHT22;15212;48.830;8.730;2023-01-23T15:05:22;0.90;99.90
27848;DHT22;15212;48.830;8.730;2023-01-23T15:08:39;0.90;99.90
27848;DHT22;15212;48.830;8.730;2023-01-23T15:10:51;0.90;99.90
27848;DHT22;15212;48.830;8.730;2023-01-23T15:13:28;0.80;99.90
27848;DHT22;15212;48.830;8.730;2023-01-23T15:16:00;0.70;99.90
27848;DHT22;15212;48.830;8.730;2023-01-23T15:18:33;0.70;99.90
27848;DHT22;15212;48.830;8.730;2023-01-23T15:21:07;0.60;99.90
27848;DHT22;15212;48.830;8.730;2023-01-23T15:23:37;0.60;99.90
27848;DHT22;15212;48.830;8.730;2023-01-23T15:26:34;0.60;99.90
27848;DHT22;15212;48.830;8.730;2023-01-23T15:31:42;0.60;99.90
27848;DHT22;15212;48.830;8.730;2023-01-23T15:39:57;0.50;99.90
27848;DHT22;15212;48.830;8.730;2023-01-23T15:42:32;0.50;99.90
27848;DHT22;15212;48.830;8.730;2023-01-23T15:45:01;0.50;99.90
27848;DHT22;15212;48.830;8.730;2023-01-23T15:47:34;0.50;99.90
27848;DHT22;15212;48.830;8.730;2023-01-23T15:50:02;0.40;99.90
27848;DHT22;15212;48.830;8.730;2023-01-23T15:52:54;0.50;99.90
27848;DHT22;15212;48.830;8.730;2023-01-23T15:55:08;0.50;99.90
27848;DHT22;15212;48.830;8.730;2023-01-23T15:57:37;0.40;99.90
27848;DHT22;15212;48.830;8.730;2023-01-23T16:00:15;0.40;99.90
27848;DHT22;15212;48.830;8.730;2023-01-23T16:02:47;0.40;99.90
27848;DHT22;15212;48.830;8.730;2023-01-23T16:05:23;0.40;99.90
27848;DHT22;15212;48.830;8.730;2023-01-23T16:07:49;0.40;99.90
27848;DHT22;15212;48.830;8.730;2023-01-23T16:10:23;0.40;99.90
27848;DHT22;15212;48.830;8.730;2023-01-23T16:12:55;0.40;99.90
27848;DHT22;15212;48.830;8.730;2023-01-23T16:15:29;0.40;99.90
27848;DHT22;15212;48.830;8.730;2023-01-23T16:18:00;0.40;99.90
27848;DHT22;15212;48.830;8.730;2023-01-23T16:20:33;0.40;99.90
27848;DHT22;15212;48.830;8.730;2023-01-23T16:23:27;0.40;99.90
27848;DHT22;15212;48.830;8.730;2023-01-23T16:25:40;0.30;99.90
27848;DHT22;15212;48.830;8.730;2023-01-23T16:28:20;0.30;99.90
27848;DHT22;15212;48.830;8.730;2023-01-23T16:30:52;0.30;99.90
27848;DHT22;15212;48.830;8.730;2023-01-23T16:33:21;0.30;99.90
27848;DHT22;15212;48.830;8.730;2023-01-23T16:35:49;0.30;99.90
27848;DHT22;15212;48.830;8.730;2023-01-23T16:38:21;0.30;99.90
27848;DHT22;15212;48.830;8.730;2023-01-23T16:40:53;0.20;99.90
27848;DHT22;15212;48.830;8.730;2023-01-23T16:43:22;0.30;99.90
27848;DHT22;15212;48.830;8.730;2023-01-23T16:45:50;0.20;99.90
27848;DHT22;15212;48.830;8.730;2023-01-23T16:48:20;0.20;99.90
27848;DHT22;15212;48.830;8.730;2023-01-23T16:50:51;0.20;99.90
27848;DHT22;15212;48.830;8.730;2023-01-23T16:53:25;0.20;99.90
27848;DHT22;15212;48.830;8.730;2023-01-23T16:55:58;0.20;99.90
27848;DHT22;15212;48.830;8.730;2023-01-23T16:58:30;0.20;99.90
27848;DHT22;15212;48.830;8.730;2023-01-23T17:01:03;0.30;99.90
27848;DHT22;15212;48.830;8.730;2023-01-23T17:03:36;0.30;99.90
27848;DHT22;15212;48.830;8.730;2023-01-23T17:06:10;0.30;99.90
27848;DHT22;15212;48.830;8.730;2023-01-23T17:08:41;0.30;99.90
27848;DHT22;15212;48.830;8.730;2023-01-23T17:11:14;0.30;99.90
27848;DHT22;15212;48.830;8.730;2023-01-23T17:13:42;0.30;99.90
27848;DHT22;15212;48.830;8.730;2023-01-23T17:16:10;0.30;99.90
27848;DHT22;15212;48.830;8.730;2023-01-23T17:18:39;0.40;99.90
27848;DHT22;15212;48.830;8.730;2023-01-23T17:21:09;0.30;99.90
27848;DHT22;15212;48.830;8.730;2023-01-23T17:23:40;0.40;99.90
27848;DHT22;15212;48.830;8.730;2023-01-23T17:26:14;0.30;99.90
27848;DHT22;15212;48.830;8.730;2023-01-23T17:28:43;0.30;99.90
27848;DHT22;15212;48.830;8.730;2023-01-23T17:31:23;0.40;99.90